createdAt,value
2017-09-19T00:00:12.806Z,99.90
2017-09-19T00:02:38.754Z,99.90
2017-09-19T00:05:05.493Z,99.90
2017-09-19T00:07:32.190Z,99.90
2017-09-19T00:09:58.183Z,99.90
2017-09-19T00:12:24.130Z,99.90
2017-09-19T00:14:50.820Z,99.90
2017-09-19T00:17:16.800Z,99.90
2017-09-19T00:19:42.750Z,99.90
2017-09-19T00:22:08.693Z,99.90
2017-09-19T00:24:34.672Z,99.90
2017-09-19T00:27:00.645Z,99.90
2017-09-19T00:29:26.645Z,99.90
2017-09-19T00:31:52.584Z,99.90
2017-09-19T00:34:18.570Z,99.90
2017-09-19T00:36:44.514Z,99.90
2017-09-19T00:39:10.494Z,99.90
2017-09-19T00:41:36.457Z,99.90
2017-09-19T00:44:02.429Z,99.90
2017-09-19T00:46:28.373Z,99.90
2017-09-19T00:48:54.318Z,99.90
2017-09-19T00:51:20.324Z,99.90
2017-09-19T00:53:46.293Z,99.90
2017-09-19T00:56:12.235Z,99.90
2017-09-19T00:58:38.231Z,99.90
2017-09-19T01:01:04.222Z,99.90
2017-09-19T01:03:30.181Z,99.90
2017-09-19T01:05:56.382Z,99.90
2017-09-19T01:08:22.320Z,99.90
2017-09-19T01:10:48.265Z,99.90
2017-09-19T01:13:14.255Z,99.90
2017-09-19T01:15:40.206Z,99.90
2017-09-19T01:18:06.210Z,99.90
2017-09-19T01:20:32.191Z,99.90
2017-09-19T01:22:58.130Z,99.90
2017-09-19T01:25:24.115Z,99.90
2017-09-19T01:27:50.070Z,99.90
2017-09-19T01:30:16.014Z,99.90
2017-09-19T01:32:42.734Z,99.90
2017-09-19T01:35:09.494Z,99.90
2017-09-19T01:37:35.462Z,99.90
2017-09-19T01:40:02.152Z,99.90
2017-09-19T01:42:28.125Z,99.90
2017-09-19T01:44:54.082Z,99.90
2017-09-19T01:47:20.076Z,99.90
2017-09-19T01:49:46.030Z,99.90
2017-09-19T01:52:12.726Z,99.90
2017-09-19T01:54:38.715Z,99.90
2017-09-19T01:57:04.731Z,99.90
2017-09-19T01:59:30.718Z,99.90
2017-09-19T02:01:56.679Z,99.90
2017-09-19T02:04:23.439Z,99.90
2017-09-19T02:06:49.394Z,99.90
2017-09-19T02:09:15.386Z,99.90
2017-09-19T02:11:42.081Z,99.90
2017-09-19T02:14:08.042Z,99.90
2017-09-19T02:16:34.054Z,99.90
2017-09-19T02:19:00.020Z,99.90
2017-09-19T02:21:25.965Z,99.90
2017-09-19T02:23:51.958Z,99.90
2017-09-19T02:26:17.926Z,99.90
2017-09-19T02:28:43.887Z,99.90
2017-09-19T02:31:09.873Z,99.90
2017-09-19T02:33:35.846Z,99.90
2017-09-19T02:36:01.830Z,99.90
2017-09-19T02:38:28.570Z,99.90
2017-09-19T02:40:55.268Z,99.90
2017-09-19T02:43:21.227Z,99.90
2017-09-19T02:45:47.194Z,99.90
2017-09-19T02:48:13.882Z,99.90
2017-09-19T02:50:39.915Z,99.90
2017-09-19T02:53:05.882Z,99.90
2017-09-19T02:55:31.834Z,99.90
2017-09-19T02:57:57.821Z,99.90
2017-09-19T03:00:23.778Z,99.90
2017-09-19T03:02:50.502Z,99.90
2017-09-19T03:05:17.229Z,99.90
2017-09-19T03:07:43.964Z,99.90
2017-09-19T03:10:09.961Z,99.90
2017-09-19T03:12:36.669Z,99.90
2017-09-19T03:15:02.638Z,99.90
2017-09-19T03:17:28.587Z,99.90
2017-09-19T03:19:54.561Z,99.90
2017-09-19T03:22:20.511Z,99.90
2017-09-19T03:24:47.261Z,99.90
2017-09-19T03:27:13.217Z,99.90
2017-09-19T03:29:39.183Z,99.90
2017-09-19T03:32:05.186Z,99.90
2017-09-19T03:34:31.162Z,99.90
2017-09-19T03:36:57.187Z,99.90
2017-09-19T03:39:23.873Z,99.90
2017-09-19T03:41:49.838Z,99.90
2017-09-19T03:44:15.826Z,99.90
2017-09-19T03:46:42.567Z,99.90
2017-09-19T03:49:08.610Z,99.90
2017-09-19T03:51:34.578Z,99.90
2017-09-19T03:54:00.609Z,99.90
2017-09-19T03:56:26.598Z,99.90
2017-09-19T03:58:52.549Z,99.90
2017-09-19T04:01:18.534Z,99.90
2017-09-19T04:03:44.494Z,99.90
2017-09-19T04:06:10.491Z,99.90
2017-09-19T04:08:36.527Z,99.90
2017-09-19T04:11:03.270Z,99.90
2017-09-19T04:13:29.258Z,99.90
2017-09-19T04:15:55.959Z,99.90
2017-09-19T04:18:21.923Z,99.90
2017-09-19T04:20:47.922Z,99.90
2017-09-19T04:23:13.972Z,99.90
2017-09-19T04:25:39.942Z,99.90
2017-09-19T04:28:05.946Z,99.90
2017-09-19T04:30:31.894Z,99.90
2017-09-19T04:32:57.882Z,99.90
2017-09-19T04:35:23.885Z,99.90
2017-09-19T04:37:49.882Z,99.90
2017-09-19T04:40:15.838Z,99.90
2017-09-19T04:42:41.797Z,99.90
2017-09-19T04:45:07.811Z,99.90
2017-09-19T04:47:33.892Z,99.90
2017-09-19T04:50:00.670Z,99.90
2017-09-19T04:52:26.641Z,99.90
2017-09-19T04:54:53.333Z,99.90
2017-09-19T04:57:19.314Z,99.90
2017-09-19T04:59:45.266Z,99.90
2017-09-19T05:02:11.966Z,99.90
2017-09-19T05:04:37.950Z,99.90
2017-09-19T05:07:04.008Z,99.90
2017-09-19T05:09:30.752Z,99.90
2017-09-19T05:11:57.452Z,99.90
2017-09-19T05:14:23.438Z,99.90
2017-09-19T05:16:49.394Z,99.90
2017-09-19T05:19:16.091Z,99.90
2017-09-19T05:21:42.090Z,99.90
2017-09-19T05:24:08.054Z,99.90
2017-09-19T05:26:34.021Z,99.90
2017-09-19T05:29:00.001Z,99.90
2017-09-19T05:31:25.983Z,99.90
2017-09-19T05:33:51.974Z,99.90
2017-09-19T05:36:17.931Z,99.90
2017-09-19T05:38:43.886Z,99.90
2017-09-19T05:41:10.617Z,99.90
2017-09-19T05:43:36.630Z,99.90
2017-09-19T05:46:02.625Z,99.90
2017-09-19T05:48:29.318Z,99.90
2017-09-19T05:50:55.343Z,99.90
2017-09-19T05:53:21.302Z,99.90
2017-09-19T05:55:47.290Z,99.90
2017-09-19T05:58:13.250Z,99.90
2017-09-19T06:00:39.242Z,99.90
2017-09-19T06:03:05.234Z,99.90
2017-09-19T06:05:31.182Z,99.90
2017-09-19T06:07:57.206Z,99.90
2017-09-19T06:10:23.903Z,99.90
2017-09-19T06:12:49.869Z,99.90
2017-09-19T06:15:15.886Z,99.90
2017-09-19T06:17:41.849Z,99.90
2017-09-19T06:20:07.803Z,99.90
2017-09-19T06:22:33.790Z,99.90
2017-09-19T06:24:59.742Z,99.90
2017-09-19T06:27:25.690Z,99.90
2017-09-19T06:29:51.694Z,99.90
2017-09-19T06:32:17.666Z,99.90
2017-09-19T06:34:44.409Z,99.90
2017-09-19T06:37:10.362Z,99.90
2017-09-19T06:39:36.309Z,99.90
2017-09-19T06:42:02.312Z,99.90
2017-09-19T06:44:29.014Z,99.90
2017-09-19T06:46:54.962Z,99.90
2017-09-19T06:49:21.003Z,99.90
2017-09-19T06:51:47.006Z,99.90
2017-09-19T06:54:13.013Z,99.90
2017-09-19T06:56:38.973Z,99.90
2017-09-19T06:59:05.707Z,99.90
2017-09-19T07:01:32.452Z,99.90
2017-09-19T07:03:58.410Z,99.90
2017-09-19T07:06:24.366Z,99.90
2017-09-19T07:08:50.407Z,99.90
2017-09-19T07:11:16.395Z,99.90
2017-09-19T07:13:42.399Z,99.90
2017-09-19T07:16:08.389Z,99.90
2017-09-19T07:18:34.370Z,99.90
2017-09-19T07:21:00.319Z,99.90
2017-09-19T07:23:26.314Z,99.90
2017-09-19T07:25:52.278Z,99.90
2017-09-19T07:28:18.259Z,99.90
2017-09-19T07:30:44.262Z,99.90
2017-09-19T07:33:10.213Z,99.90
2017-09-19T07:35:36.169Z,99.90
2017-09-19T07:38:02.154Z,99.90
2017-09-19T07:40:28.846Z,99.90
2017-09-19T07:42:54.886Z,99.90
2017-09-19T07:45:21.589Z,99.90
2017-09-19T07:47:47.560Z,99.90
2017-09-19T07:50:13.559Z,99.90
2017-09-19T07:52:39.513Z,99.90
2017-09-19T07:55:05.526Z,99.90
2017-09-19T07:57:31.490Z,99.90
2017-09-19T07:59:57.495Z,99.90
2017-09-19T08:02:23.450Z,99.90
2017-09-19T08:04:49.448Z,99.90
2017-09-19T08:07:15.447Z,99.90
2017-09-19T08:09:41.402Z,99.90
2017-09-19T08:12:08.122Z,99.90
2017-09-19T08:14:34.894Z,99.90
2017-09-19T08:17:00.850Z,99.90
2017-09-19T08:19:27.545Z,99.90
2017-09-19T08:21:53.535Z,99.90
2017-09-19T08:24:19.490Z,99.90
2017-09-19T08:26:45.505Z,99.90
2017-09-19T08:29:12.243Z,99.90
2017-09-19T08:31:38.242Z,99.90
2017-09-19T08:34:04.940Z,99.90
2017-09-19T08:36:30.900Z,99.90
2017-09-19T08:38:56.891Z,99.90
2017-09-19T08:41:22.851Z,99.90
2017-09-19T08:43:48.850Z,99.90
2017-09-19T08:46:14.819Z,99.90
2017-09-19T08:48:40.818Z,99.90
2017-09-19T08:51:06.779Z,99.90
2017-09-19T08:53:32.729Z,99.90
2017-09-19T08:55:59.466Z,99.90
2017-09-19T08:58:25.410Z,99.90
2017-09-19T09:00:51.374Z,99.90
2017-09-19T09:03:18.113Z,99.90
2017-09-19T09:05:44.082Z,99.90
2017-09-19T09:08:10.079Z,99.90
2017-09-19T09:10:36.779Z,99.90
2017-09-19T09:13:02.762Z,99.90
2017-09-19T09:15:28.766Z,99.90
2017-09-19T09:17:54.718Z,99.90
2017-09-19T09:20:20.675Z,99.90
2017-09-19T09:22:47.411Z,99.90
2017-09-19T09:25:13.358Z,99.90
2017-09-19T09:27:39.346Z,99.90
2017-09-19T09:30:05.303Z,99.90
2017-09-19T09:32:31.254Z,99.90
2017-09-19T09:34:57.238Z,99.90
2017-09-19T09:37:23.942Z,99.90
2017-09-19T09:39:49.937Z,99.90
2017-09-19T09:42:15.918Z,99.90
2017-09-19T09:44:41.901Z,99.90
2017-09-19T09:47:07.895Z,99.90
2017-09-19T09:49:34.589Z,99.90
2017-09-19T09:52:00.550Z,99.90
2017-09-19T09:54:26.542Z,99.90
2017-09-19T09:56:53.254Z,99.90
2017-09-19T09:59:19.998Z,99.90
2017-09-19T10:01:45.986Z,99.90
2017-09-19T10:04:11.986Z,99.90
2017-09-19T10:06:37.991Z,99.90
2017-09-19T10:09:03.955Z,99.90
2017-09-19T10:11:29.971Z,99.90
2017-09-19T10:13:55.963Z,99.90
2017-09-19T10:16:21.938Z,99.90
2017-09-19T10:18:47.907Z,99.90
2017-09-19T10:21:13.893Z,99.90
2017-09-19T10:23:39.892Z,99.90
2017-09-19T10:26:05.838Z,99.90
2017-09-19T10:28:31.790Z,99.90
2017-09-19T10:30:58.531Z,99.90
2017-09-19T10:33:24.486Z,99.90
2017-09-19T10:35:50.484Z,99.90
2017-09-19T10:38:16.482Z,99.90
2017-09-19T10:40:42.478Z,99.90
2017-09-19T10:43:08.455Z,99.90
2017-09-19T10:45:35.158Z,99.90
2017-09-19T10:48:01.154Z,99.90
2017-09-19T10:50:27.110Z,99.90
2017-09-19T10:52:54.206Z,99.90
2017-09-19T10:55:20.162Z,99.90
2017-09-19T10:57:46.137Z,99.90
2017-09-19T11:00:12.127Z,99.90
2017-09-19T11:02:38.098Z,99.90
2017-09-19T11:05:04.139Z,99.90
2017-09-19T11:07:30.106Z,99.90
2017-09-19T11:09:56.064Z,99.90
2017-09-19T11:12:22.090Z,99.90
2017-09-19T11:14:48.069Z,99.90
2017-09-19T11:17:14.062Z,99.90
2017-09-19T11:19:40.014Z,99.90
2017-09-19T11:22:06.039Z,99.90
2017-09-19T11:24:32.773Z,99.90
2017-09-19T11:26:58.734Z,99.90
2017-09-19T11:29:24.686Z,99.90
2017-09-19T11:31:50.706Z,99.90
2017-09-19T11:34:16.692Z,99.90
2017-09-19T11:36:43.458Z,99.90
2017-09-19T11:39:09.434Z,99.90
2017-09-19T11:41:36.140Z,99.90
2017-09-19T11:44:02.138Z,99.90
2017-09-19T11:46:28.103Z,99.90
2017-09-19T11:48:54.062Z,99.90
2017-09-19T11:51:20.065Z,99.90
2017-09-19T11:53:46.034Z,99.90
2017-09-19T11:56:11.994Z,99.90
2017-09-19T11:58:38.746Z,99.90
2017-09-19T12:01:04.706Z,99.90
2017-09-19T12:03:30.666Z,99.90
2017-09-19T12:05:56.678Z,99.90
2017-09-19T12:08:22.638Z,99.90
2017-09-19T12:10:48.634Z,99.90
2017-09-19T12:13:14.622Z,99.90
2017-09-19T12:15:40.586Z,99.90
2017-09-19T12:18:07.328Z,99.90
2017-09-19T12:20:33.280Z,99.90
2017-09-19T12:22:59.250Z,99.90
2017-09-19T12:25:25.238Z,99.90
2017-09-19T12:27:51.954Z,99.90
2017-09-19T12:30:18.701Z,99.90
2017-09-19T12:32:45.390Z,99.90
2017-09-19T12:35:11.402Z,99.90
2017-09-19T12:37:37.354Z,99.90
2017-09-19T12:40:03.430Z,99.90
2017-09-19T12:42:29.414Z,99.90
2017-09-19T12:44:55.374Z,99.90
2017-09-19T12:47:21.391Z,97.10
2017-09-19T12:49:47.361Z,94.40
2017-09-19T12:52:13.354Z,91.90
2017-09-19T12:54:39.342Z,92.40
2017-09-19T12:57:05.294Z,85.50
2017-09-19T12:59:32.025Z,75.90
2017-09-19T13:01:58.724Z,75.90
2017-09-19T13:04:24.759Z,75.70
2017-09-19T13:06:51.489Z,69.40
2017-09-19T13:09:18.191Z,70.00
2017-09-19T13:11:44.178Z,69.90
2017-09-19T13:14:10.210Z,68.20
2017-09-19T13:16:36.183Z,70.20
2017-09-19T13:19:02.188Z,68.20
2017-09-19T13:21:28.195Z,74.20
2017-09-19T13:23:54.182Z,76.30
2017-09-19T13:26:20.909Z,69.00
2017-09-19T13:28:46.869Z,69.10
2017-09-19T13:34:16.084Z,70.80
2017-09-19T13:36:42.826Z,69.20
2017-09-19T13:39:08.818Z,69.20
2017-09-19T13:41:34.786Z,69.40
2017-09-19T13:44:01.527Z,72.80
2017-09-19T13:46:27.548Z,72.70
2017-09-19T13:48:53.583Z,73.30
2017-09-19T13:51:19.546Z,75.70
2017-09-19T13:53:46.249Z,69.30
2017-09-19T13:56:12.323Z,69.20
2017-09-19T13:58:38.273Z,67.60
2017-09-19T14:01:04.295Z,67.60
2017-09-19T14:03:31.010Z,64.40
2017-09-19T14:05:57.053Z,64.20
2017-09-19T14:08:23.053Z,63.20
2017-09-19T14:10:49.002Z,59.10
2017-09-19T14:13:14.962Z,56.10
2017-09-19T14:15:41.749Z,59.50
2017-09-19T14:18:07.746Z,59.50
2017-09-19T14:20:33.774Z,61.10
2017-09-19T14:22:59.776Z,64.00
2017-09-19T14:25:25.774Z,66.80
2017-09-19T14:27:51.726Z,72.40
2017-09-19T14:30:18.470Z,77.40
2017-09-19T14:32:44.428Z,77.40
2017-09-19T14:35:10.382Z,79.30
2017-09-19T14:37:37.110Z,80.60
2017-09-19T14:40:03.822Z,80.10
2017-09-19T14:42:30.578Z,78.40
2017-09-19T14:44:56.566Z,78.50
2017-09-19T14:47:23.298Z,84.00
2017-09-19T14:49:49.990Z,82.70
2017-09-19T14:52:15.999Z,82.80
2017-09-19T14:54:41.953Z,81.50
2017-09-19T14:57:07.912Z,84.70
2017-09-19T14:59:33.900Z,84.00
2017-09-19T15:01:59.918Z,78.20
2017-09-19T15:04:25.912Z,78.90
2017-09-19T15:06:51.879Z,76.50
2017-09-19T15:09:18.605Z,74.60
2017-09-19T15:11:45.682Z,75.90
2017-09-19T15:14:11.634Z,75.80
2017-09-19T15:16:37.751Z,73.60
2017-09-19T15:19:04.507Z,74.70
2017-09-19T15:21:30.558Z,74.70
2017-09-19T15:23:57.243Z,76.90
2017-09-19T15:26:23.271Z,76.70
2017-09-19T15:28:49.285Z,78.60
2017-09-19T15:31:15.298Z,78.30
2017-09-19T15:33:41.254Z,82.10
2017-09-19T15:36:07.948Z,85.30
2017-09-19T15:38:33.962Z,85.30
2017-09-19T15:40:59.929Z,86.80
2017-09-19T15:43:25.910Z,84.10
2017-09-19T15:45:51.923Z,85.10
2017-09-19T15:48:17.906Z,85.10
2017-09-19T15:50:43.858Z,82.50
2017-09-19T15:53:10.585Z,83.10
2017-09-19T15:55:37.314Z,83.40
2017-09-19T15:58:04.014Z,84.80
2017-09-19T16:00:29.962Z,84.80
2017-09-19T16:02:56.030Z,86.30
2017-09-19T16:05:22.031Z,87.50
2017-09-19T16:07:48.024Z,86.80
2017-09-19T16:10:13.983Z,87.50
2017-09-19T16:12:40.726Z,86.80
2017-09-19T16:15:06.726Z,86.80
2017-09-19T16:17:32.677Z,86.90
2017-09-19T16:19:58.679Z,88.00
2017-09-19T16:22:24.810Z,89.60
2017-09-19T16:24:50.795Z,89.40
2017-09-19T16:27:16.778Z,88.50
2017-09-19T16:29:42.774Z,89.50
2017-09-19T16:32:09.507Z,90.80
2017-09-19T16:34:35.514Z,90.70
2017-09-19T16:37:01.480Z,90.60
2017-09-19T16:39:27.514Z,90.80
2017-09-19T16:41:54.270Z,91.50
2017-09-19T16:44:20.307Z,91.50
2017-09-19T16:46:46.270Z,92.50
2017-09-19T16:49:12.975Z,94.40
2017-09-19T16:51:38.970Z,94.40
2017-09-19T16:54:04.935Z,95.30
2017-09-19T16:56:30.951Z,96.20
2017-09-19T16:58:56.910Z,96.80
2017-09-19T17:01:23.716Z,98.10
2017-09-19T17:03:49.714Z,98.10
2017-09-19T17:06:15.682Z,98.80
2017-09-19T17:08:41.667Z,99.00
2017-09-19T17:11:08.406Z,99.90
2017-09-19T17:13:34.394Z,99.90
2017-09-19T17:16:00.435Z,99.90
2017-09-19T17:18:26.500Z,99.90
2017-09-19T17:20:52.516Z,99.90
2017-09-19T17:23:18.523Z,99.90
2017-09-19T17:25:44.513Z,99.90
2017-09-19T17:28:10.507Z,99.90
2017-09-19T17:30:36.467Z,99.90
2017-09-19T17:33:03.166Z,99.90
2017-09-19T17:35:29.151Z,99.90
2017-09-19T17:37:55.162Z,99.90
2017-09-19T17:40:21.149Z,99.90
2017-09-19T17:42:47.110Z,99.90
2017-09-19T17:45:13.099Z,99.90
2017-09-19T17:47:39.090Z,99.90
2017-09-19T17:50:05.039Z,99.90
2017-09-19T17:52:31.042Z,99.90
2017-09-19T17:54:57.005Z,99.90
2017-09-19T17:57:22.987Z,99.90
2017-09-19T17:59:49.758Z,99.90
2017-09-19T18:02:15.726Z,99.90
2017-09-19T18:04:41.681Z,99.90
2017-09-19T18:07:07.661Z,99.90
2017-09-19T18:09:33.630Z,99.90
2017-09-19T18:11:59.616Z,99.90
2017-09-19T18:14:25.616Z,99.90
2017-09-19T18:16:51.639Z,99.90
2017-09-19T18:19:17.630Z,99.90
2017-09-19T18:21:43.582Z,99.90
2017-09-19T18:24:10.315Z,99.90
2017-09-19T18:26:37.050Z,99.90
2017-09-19T18:29:03.002Z,99.90
2017-09-19T18:31:28.987Z,99.90
2017-09-19T18:33:54.975Z,99.90
2017-09-19T18:36:20.984Z,99.90
2017-09-19T18:38:46.950Z,99.90
2017-09-19T18:41:12.948Z,99.90
2017-09-19T18:43:38.910Z,99.90
2017-09-19T18:46:05.675Z,99.90
2017-09-19T18:48:31.638Z,99.90
2017-09-19T18:50:57.606Z,99.90
2017-09-19T18:53:23.634Z,99.90
2017-09-19T18:55:49.594Z,99.90
2017-09-19T18:58:15.553Z,99.90
2017-09-19T19:00:42.278Z,99.90
2017-09-19T19:03:08.230Z,99.90
2017-09-19T19:05:34.222Z,99.90
2017-09-19T19:08:00.252Z,99.90
2017-09-19T19:10:26.202Z,99.90
2017-09-19T19:12:52.194Z,99.90
2017-09-19T19:15:18.155Z,99.90
2017-09-19T19:17:44.157Z,99.90
2017-09-19T19:20:10.115Z,99.90
2017-09-19T19:22:36.102Z,99.90
2017-09-19T19:25:02.050Z,99.90
2017-09-19T19:27:28.049Z,99.90
2017-09-19T19:29:54.014Z,99.90
2017-09-19T19:32:20.034Z,99.90
2017-09-19T19:34:45.983Z,99.90
2017-09-19T19:37:11.933Z,99.90
2017-09-19T19:39:37.935Z,99.90
2017-09-19T19:42:03.902Z,99.90
2017-09-19T19:44:29.850Z,99.90
2017-09-19T19:46:55.855Z,99.90
2017-09-19T19:49:21.885Z,99.90
2017-09-19T19:51:47.906Z,99.90
2017-09-19T19:54:13.871Z,99.90
2017-09-19T19:56:40.610Z,99.90
2017-09-19T19:59:06.610Z,99.90
2017-09-19T20:01:33.299Z,99.90
2017-09-19T20:03:59.282Z,99.90
2017-09-19T20:06:25.289Z,99.90
2017-09-19T20:08:51.312Z,99.90
2017-09-19T20:11:17.289Z,99.90
2017-09-19T20:13:43.238Z,99.90
2017-09-19T20:16:09.221Z,99.90
2017-09-19T20:18:35.218Z,99.90
2017-09-19T20:21:01.177Z,99.90
2017-09-19T20:23:27.170Z,99.90
2017-09-19T20:25:53.142Z,99.90
2017-09-19T20:28:19.129Z,99.90
2017-09-19T20:30:45.938Z,99.90
2017-09-19T20:33:11.920Z,99.90
2017-09-19T20:35:37.877Z,99.90
2017-09-19T20:38:04.626Z,99.90
2017-09-19T20:40:30.586Z,99.90
2017-09-19T20:42:56.542Z,99.90
2017-09-19T20:45:22.537Z,99.90
2017-09-19T20:47:48.528Z,99.90
2017-09-19T20:50:15.231Z,99.90
2017-09-19T20:52:41.254Z,99.90
2017-09-19T20:55:07.952Z,99.90
2017-09-19T20:57:33.926Z,99.90
2017-09-19T20:59:59.925Z,99.90
2017-09-19T21:02:25.888Z,99.90
2017-09-19T21:04:57.955Z,99.90
2017-09-19T21:07:30.768Z,99.90
2017-09-19T21:10:02.987Z,99.90
2017-09-19T21:12:35.794Z,99.90
2017-09-19T21:15:07.974Z,99.90
2017-09-19T21:17:40.077Z,99.90
2017-09-19T21:20:06.023Z,99.90
2017-09-19T21:22:31.994Z,99.90
2017-09-19T21:24:58.022Z,99.90
2017-09-19T21:27:23.991Z,99.90
2017-09-19T21:29:50.720Z,99.90
2017-09-19T21:32:17.458Z,99.90
2017-09-19T21:34:43.418Z,99.90
2017-09-19T21:37:09.370Z,99.90
2017-09-19T21:39:35.350Z,99.90
2017-09-19T21:42:01.302Z,99.90
2017-09-19T21:44:27.294Z,99.90
2017-09-19T21:46:53.258Z,99.90
2017-09-19T21:49:19.250Z,99.90
2017-09-19T21:51:45.234Z,99.90
2017-09-19T21:54:11.214Z,99.90
2017-09-19T21:56:37.958Z,99.90
2017-09-19T21:59:03.921Z,99.90
2017-09-19T22:01:29.879Z,99.90
2017-09-19T22:03:55.933Z,99.90
2017-09-19T22:06:21.899Z,99.90
2017-09-19T22:08:47.898Z,99.90
2017-09-19T22:11:13.868Z,99.90
2017-09-19T22:13:39.817Z,99.90
2017-09-19T22:16:05.803Z,99.90
2017-09-19T22:18:32.494Z,99.90
2017-09-19T22:20:58.480Z,99.90
2017-09-19T22:23:24.466Z,99.90
2017-09-19T22:25:50.462Z,99.90
2017-09-19T22:28:17.159Z,99.90
2017-09-19T22:30:43.106Z,99.90
2017-09-19T22:33:09.091Z,99.90
2017-09-19T22:35:35.046Z,99.90
2017-09-19T22:38:00.998Z,99.90
2017-09-19T22:40:26.982Z,99.90
2017-09-19T22:42:52.987Z,99.90
2017-09-19T22:45:18.978Z,99.90
2017-09-19T22:47:44.950Z,99.90
2017-09-19T22:50:11.695Z,99.90
2017-09-19T22:52:37.649Z,99.90
2017-09-19T22:55:03.602Z,99.90
2017-09-19T22:57:30.334Z,99.90
2017-09-19T22:59:56.298Z,99.90
2017-09-19T23:02:22.302Z,99.90
2017-09-19T23:04:48.269Z,99.90
2017-09-19T23:07:14.263Z,99.90
2017-09-19T23:09:40.221Z,99.90
2017-09-19T23:12:06.188Z,99.90
2017-09-19T23:14:32.174Z,99.90
2017-09-19T23:16:58.871Z,99.90
2017-09-19T23:19:24.850Z,99.90
2017-09-19T23:21:50.842Z,99.90
2017-09-19T23:24:16.861Z,99.90
2017-09-19T23:26:42.883Z,99.90
2017-09-19T23:29:08.834Z,99.90
2017-09-19T23:31:34.794Z,99.90
2017-09-19T23:34:00.809Z,99.90
2017-09-19T23:36:26.765Z,99.90
2017-09-19T23:38:53.475Z,99.90
2017-09-19T23:41:19.470Z,99.90
2017-09-19T23:43:45.454Z,99.90
2017-09-19T23:46:11.406Z,99.90
2017-09-19T23:48:37.438Z,99.90
2017-09-19T23:51:03.396Z,99.90
2017-09-19T23:53:29.350Z,99.90
2017-09-19T23:55:56.078Z,99.90
2017-09-19T23:58:22.811Z,99.90
